Time;durP1;ratioP1;P1;durP2;ratioP2;P2;SDS_P1;SDS_P2;PMS_P1;PMS_P2;Temp;Humidity;BMP_temperature;BMP_pressure;BME280_temperature;BME280_humidity;BME280_pressure;Samples;Min_cycle;Max_cycle;Signal;HPM_P1;HPM_P2
2022/12/08 00:02:22;;;;;;;21.10;16.55;;;;;;;2.73;100.00;101105.41;5051920;28;20036;-53
2022/12/08 00:10:15;;;;;;;23.67;17.75;;;;;;;2.73;100.00;101097.56;5052109;28;20082;-53
2022/12/08 00:12:40;;;;;;;21.35;17.23;;;;;;;2.73;100.00;101097.56;5051164;28;20143;-53
2022/12/08 00:15:06;;;;;;;22.67;18.58;;;;;;;2.73;100.00;101083.56;5051674;28;20027;-56
2022/12/08 00:17:31;;;;;;;22.83;18.83;;;;;;;2.73;100.00;101083.56;5051868;28;20467;-53
2022/12/08 00:19:56;;;;;;;26.88;19.65;;;;;;;2.72;100.00;101076.63;5046504;28;20029;-55
2022/12/08 00:22:22;;;;;;;25.88;20.35;;;;;;;2.72;100.00;101074.00;5051924;28;20044;-53
2022/12/08 00:24:47;;;;;;;26.92;19.60;;;;;;;2.72;100.00;101072.22;5051844;28;20597;-53
2022/12/08 00:27:14;;;;;;;29.58;20.98;;;;;;;2.70;100.00;101063.56;5051011;28;20120;-53
2022/12/08 00:29:42;;;;;;;26.38;21.05;;;;;;;2.69;100.00;101059.22;5051442;28;20493;-53
2022/12/08 00:32:07;;;;;;;27.20;22.13;;;;;;;2.69;100.00;101059.22;5051038;28;20021;-55
2022/12/08 00:34:33;;;;;;;28.42;22.33;;;;;;;2.67;100.00;101063.69;5051051;28;20037;-53
2022/12/08 00:36:58;;;;;;;32.67;23.55;;;;;;;2.68;100.00;101057.53;5051774;28;20162;-54
2022/12/08 00:39:23;;;;;;;31.10;22.70;;;;;;;2.68;100.00;101062.78;5051440;28;20029;-53
2022/12/08 00:44:32;;;;;;;29.10;22.35;;;;;;;2.68;100.00;101054.03;5051533;28;20040;-55
2022/12/08 00:46:58;;;;;;;29.27;24.65;;;;;;;2.67;100.00;101053.19;5051797;28;20025;-54
2022/12/08 00:49:24;;;;;;;31.42;24.23;;;;;;;2.68;100.00;101054.91;5050739;28;20638;-54
2022/12/08 00:51:49;;;;;;;33.20;25.40;;;;;;;2.69;100.00;101046.13;5051061;28;20104;-52
2022/12/08 00:54:14;;;;;;;32.00;26.25;;;;;;;2.69;100.00;101042.66;5041763;28;20083;-53
2022/12/08 00:56:40;;;;;;;32.38;25.67;;;;;;;2.69;100.00;101050.53;5055463;28;20116;-52
2022/12/08 00:59:06;;;;;;;31.63;25.23;;;;;;;2.68;100.00;101047.06;5055122;28;20056;-54
2022/12/08 01:01:33;;;;;;;30.02;25.08;;;;;;;2.68;100.00;101041.81;5055483;28;20025;-54
2022/12/08 01:04:06;;;;;;;33.67;25.45;;;;;;;2.67;100.00;101036.63;5054571;28;20025;-53
2022/12/08 01:06:33;;;;;;;28.30;23.38;;;;;;;2.66;100.00;101040.16;5055258;28;20426;-52
2022/12/08 01:09:00;;;;;;;29.38;24.15;;;;;;;2.68;100.00;101038.31;5055060;28;20108;-54
2022/12/08 01:11:25;;;;;;;28.77;22.38;;;;;;;2.68;100.00;101039.19;5054500;28;20044;-53
2022/12/08 01:13:51;;;;;;;25.60;21.00;;;;;;;2.69;100.00;101035.63;5054681;28;20021;-54
2022/12/08 01:16:22;;;;;;;26.10;20.67;;;;;;;2.69;100.00;101034.78;5055272;28;20052;-53
2022/12/08 01:18:47;;;;;;;26.42;19.40;;;;;;;2.68;100.00;101030.44;5054208;28;20028;-52
2022/12/08 01:21:13;;;;;;;26.20;18.88;;;;;;;2.69;100.00;101027.75;5053681;28;20115;-55
2022/12/08 01:23:38;;;;;;;24.65;18.58;;;;;;;2.69;100.00;101021.66;5054711;28;20033;-53
2022/12/08 01:26:05;;;;;;;22.38;18.02;;;;;;;2.69;100.00;101021.66;5047776;28;20085;-52
2022/12/08 01:28:31;;;;;;;22.80;17.55;;;;;;;2.69;100.00;101024.28;5039726;28;20087;-55
2022/12/08 01:30:57;;;;;;;21.52;15.95;;;;;;;2.71;100.00;101025.06;5044926;28;20024;-52
2022/12/08 01:33:24;;;;;;;19.95;16.02;;;;;;;2.71;100.00;101025.91;5054621;28;20523;-55
2022/12/08 01:35:49;;;;;;;17.75;14.65;;;;;;;2.73;100.00;101031.09;5046871;28;20125;-52
2022/12/08 01:38:14;;;;;;;19.20;14.52;;;;;;;2.73;100.00;101028.47;5054065;28;20113;-56
2022/12/08 01:40:40;;;;;;;19.00;14.10;;;;;;;2.73;100.00;101025.84;5054063;28;20148;-54
2022/12/08 01:43:05;;;;;;;17.35;13.82;;;;;;;2.74;100.00;101024.94;5053556;28;20033;-53
2022/12/08 01:45:31;;;;;;;21.25;15.27;;;;;;;2.75;100.00;101029.28;5043328;28;20068;-54
2022/12/08 01:48:05;;;;;;;18.25;14.25;;;;;;;2.75;100.00;101018.81;5054007;28;20043;-53
2022/12/08 01:50:31;;;;;;;18.10;13.70;;;;;;;2.75;100.00;101019.66;5054017;28;20040;-54
2022/12/08 01:53:18;;;;;;;17.98;13.93;;;;;;;2.76;100.00;101018.75;5054511;28;20032;-53
2022/12/08 01:55:50;;;;;;;16.98;13.80;;;;;;;2.76;100.00;101012.63;5047276;28;20434;-54
2022/12/08 01:58:22;;;;;;;18.83;14.60;;;;;;;2.77;100.00;101012.56;5052291;28;20033;-53
2022/12/08 02:00:48;;;;;;;17.48;13.98;;;;;;;2.77;100.00;101015.19;5046963;28;20399;-53
2022/12/08 02:03:21;;;;;;;20.73;14.43;;;;;;;2.77;100.00;101002.06;5047873;28;20036;-52
2022/12/08 02:05:47;;;;;;;18.92;14.80;;;;;;;2.78;100.00;101010.78;5053011;28;20021;-52
2022/12/08 02:08:13;;;;;;;19.40;15.25;;;;;;;2.78;100.00;101008.16;5054221;28;20033;-52
2022/12/08 02:10:40;;;;;;;18.83;14.30;;;;;;;2.78;100.00;101003.78;5054240;28;20111;-52
2022/12/08 02:13:11;;;;;;;20.00;15.15;;;;;;;2.78;100.00;100995.91;5052793;28;20048;-53
2022/12/08 02:15:55;;;;;;;17.80;13.98;;;;;;;2.80;100.00;100990.63;5057243;28;20044;-56
2022/12/08 02:18:31;;;;;;;20.00;14.15;;;;;;;2.79;100.00;100999.38;5052632;28;20021;-52
2022/12/08 02:21:12;;;;;;;22.35;14.07;;;;;;;2.82;100.00;100993.16;5053655;28;20040;-56
2022/12/08 02:23:45;;;;;;;21.77;12.95;;;;;;;2.81;100.00;100991.47;5053738;28;20033;-56
2022/12/08 02:26:29;;;;;;;16.98;13.30;;;;;;;2.78;100.00;100985.44;5053432;28;20099;-53
2022/12/08 02:28:57;;;;;;;16.83;12.52;;;;;;;2.77;100.00;100978.47;5053234;28;20398;-52
2022/12/08 02:31:41;;;;;;;14.90;12.55;;;;;;;2.78;100.00;100976.69;5053356;28;20060;-53
2022/12/08 02:34:37;;;;;;;13.95;11.48;;;;;;;2.79;100.00;100978.41;5053193;28;20403;-53
2022/12/08 02:37:05;;;;;;;13.55;11.13;;;;;;;2.78;100.00;100966.19;5045346;28;20037;-52
2022/12/08 02:39:40;;;;;;;12.93;10.57;;;;;;;2.80;100.00;100966.13;5052039;28;20131;-54
2022/12/08 02:42:26;;;;;;;14.07;10.45;;;;;;;2.79;100.00;100960.03;5053252;28;20032;-54
2022/12/08 02:44:56;;;;;;;13.52;9.75;;;;;;;2.80;100.00;100963.50;5042433;28;20056;-52
2022/12/08 02:47:25;;;;;;;12.90;9.70;;;;;;;2.78;100.00;100956.56;5053125;28;20275;-55
2022/12/08 02:49:50;;;;;;;10.65;8.82;;;;;;;2.80;100.00;100960.88;5053281;28;20379;-55
2022/12/08 02:52:40;;;;;;;15.13;9.68;;;;;;;2.81;100.00;100954.72;5052896;28;20071;-52
2022/12/08 02:55:11;;;;;;;12.23;9.57;;;;;;;2.78;100.00;100939.97;5048050;28;20037;-52
2022/12/08 02:57:55;;;;;;;12.05;9.68;;;;;;;2.80;100.00;100938.16;5051617;28;20033;-56
2022/12/08 03:00:23;;;;;;;13.45;9.73;;;;;;;2.77;100.00;100933.88;5048640;28;20071;-53
2022/12/08 03:03:16;;;;;;;13.55;9.98;;;;;;;2.81;100.00;100933.75;5053051;28;20025;-55
2022/12/08 03:06:07;;;;;;;13.25;9.93;;;;;;;2.80;100.00;100932.03;5050272;28;20117;-55
2022/12/08 03:08:53;;;;;;;14.82;11.20;;;;;;;2.80;100.00;100938.16;5048845;28;20538;-57
2022/12/08 03:11:32;;;;;;;12.23;10.63;;;;;;;2.80;100.00;100932.03;5047632;28;20504;-57
2022/12/08 03:14:01;;;;;;;14.40;11.13;;;;;;;2.78;100.00;100935.59;5050957;28;20419;-51
2022/12/08 03:16:28;;;;;;;14.93;10.80;;;;;;;2.78;100.00;100932.97;5052044;28;20048;-51
2022/12/08 03:19:00;;;;;;;16.77;11.70;;;;;;;2.77;100.00;100927.78;5055419;28;20095;-52
2022/12/08 03:21:26;;;;;;;14.02;11.88;;;;;;;2.79;100.00;100925.94;5050328;28;20047;-53
2022/12/08 03:23:55;;;;;;;13.70;11.57;;;;;;;2.79;100.00;100931.19;5052666;28;20029;-53
2022/12/08 03:26:34;;;;;;;17.95;13.82;;;;;;;2.80;100.00;100917.16;5052578;28;20379;-54
2022/12/08 03:29:00;;;;;;;20.90;13.80;;;;;;;2.82;100.00;100919.72;5051319;28;20036;-53
2022/12/08 03:31:29;;;;;;;18.42;14.85;;;;;;;2.82;100.00;100914.47;5051818;28;20383;-52
2022/12/08 03:33:57;;;;;;;18.88;15.77;;;;;;;2.82;100.00;100909.22;5052743;28;20511;-52
2022/12/08 03:36:22;;;;;;;22.80;16.90;;;;;;;2.83;100.00;100913.53;5033843;28;20060;-52
2022/12/08 03:38:51;;;;;;;23.25;18.38;;;;;;;2.84;100.00;100912.63;5045106;28;20053;-51
2022/12/08 03:41:17;;;;;;;27.13;19.58;;;;;;;2.84;100.00;100905.59;5050024;28;20505;-52
2022/12/08 03:43:44;;;;;;;33.58;24.92;;;;;;;2.84;100.00;100900.38;5052317;28;20566;-53
2022/12/08 03:46:10;;;;;;;31.88;25.25;;;;;;;2.85;100.00;100903.81;5051765;28;20515;-54
2022/12/08 03:48:35;;;;;;;34.08;26.27;;;;;;;2.85;100.00;100898.59;5050035;28;20036;-54
2022/12/08 03:51:00;;;;;;;37.97;28.00;;;;;;;2.85;100.00;100894.22;5052265;28;20028;-51
2022/12/08 03:53:25;;;;;;;35.88;27.85;;;;;;;2.87;100.00;100895.00;5050855;28;20036;-51
2022/12/08 03:55:53;;;;;;;38.05;29.65;;;;;;;2.87;100.00;100892.38;5051959;28;20489;-53
2022/12/08 03:58:18;;;;;;;42.15;30.55;;;;;;;2.89;100.00;100887.06;5052231;28;20087;-51
2022/12/08 04:00:43;;;;;;;44.33;31.25;;;;;;;2.90;100.00;100891.41;5052083;28;20013;-51
2022/12/08 04:03:08;;;;;;;43.95;32.28;;;;;;;2.90;100.00;100884.38;5051275;28;20047;-55
2022/12/08 04:05:34;;;;;;;42.88;32.15;;;;;;;2.90;100.00;100884.38;5051972;28;20511;-51
2022/12/08 04:08:00;;;;;;;40.90;32.38;;;;;;;2.90;100.00;100876.50;5052393;28;20013;-54
2022/12/08 04:10:25;;;;;;;43.28;31.40;;;;;;;2.91;100.00;100877.34;5051582;28;20017;-54
2022/12/08 04:12:50;;;;;;;44.28;32.58;;;;;;;2.92;100.00;100877.28;5052416;28;20144;-54
2022/12/08 04:15:15;;;;;;;41.60;31.80;;;;;;;2.93;100.00;100880.75;5052036;28;20553;-54
2022/12/08 04:17:41;;;;;;;46.97;31.77;;;;;;;2.92;100.00;100877.28;5052605;28;20037;-51
2022/12/08 04:20:06;;;;;;;40.58;29.63;;;;;;;2.93;100.00;100875.50;5051034;28;20052;-52
2022/12/08 04:22:31;;;;;;;35.83;27.63;;;;;;;2.94;100.00;100877.22;5052132;28;20044;-54
2022/12/08 04:24:57;;;;;;;32.40;25.50;;;;;;;2.94;100.00;100875.44;5049471;28;20032;-51
2022/12/08 04:27:22;;;;;;;35.70;25.02;;;;;;;2.93;100.00;100876.38;5052110;28;20131;-54
2022/12/08 04:29:47;;;;;;;30.77;24.13;;;;;;;2.93;100.00;100865.88;5054927;28;20070;-51
2022/12/08 04:32:12;;;;;;;32.90;23.40;;;;;;;2.94;100.00;100864.09;5056626;28;20032;-52
2022/12/08 04:34:38;;;;;;;28.02;20.23;;;;;;;2.95;100.00;100865.81;5052761;28;20021;-54
2022/12/08 04:37:03;;;;;;;26.88;21.35;;;;;;;2.94;100.00;100864.09;5056307;28;20116;-51
2022/12/08 04:39:28;;;;;;;28.15;20.25;;;;;;;2.94;100.00;100862.31;5054250;28;20029;-54
2022/12/08 04:41:53;;;;;;;25.13;18.85;;;;;;;2.94;100.00;100864.94;5056209;28;20112;-55
2022/12/08 04:44:19;;;;;;;22.83;17.80;;;;;;;2.93;100.00;100854.50;5054730;28;20029;-53
2022/12/08 04:46:44;;;;;;;24.88;17.52;;;;;;;2.94;100.00;100849.19;5055949;28;20108;-51
2022/12/08 04:49:09;;;;;;;20.10;15.95;;;;;;;2.93;100.00;100837.00;5061247;28;20028;-54
2022/12/08 04:51:34;;;;;;;19.95;15.00;;;;;;;2.92;100.00;100839.69;5055146;28;20035;-54
2022/12/08 04:54:00;;;;;;;16.45;13.00;;;;;;;2.93;100.00;100854.50;5054811;28;20152;-55
2022/12/08 04:56:25;;;;;;;16.65;11.93;;;;;;;2.91;100.00;100851.94;5055528;28;20025;-54
2022/12/08 04:58:50;;;;;;;15.43;11.43;;;;;;;2.90;100.00;100847.63;5054691;28;20025;-54
2022/12/08 05:01:16;;;;;;;9.05;6.78;;;;;;;2.90;100.00;100836.31;5055674;28;20386;-55
2022/12/08 05:03:41;;;;;;;10.52;7.13;;;;;;;2.89;100.00;100837.22;5055137;28;20033;-53
2022/12/08 05:06:08;;;;;;;9.90;6.70;;;;;;;2.88;100.00;100839.00;5054337;28;20025;-55
2022/12/08 05:08:33;;;;;;;7.40;5.07;;;;;;;2.86;100.00;100843.44;5054982;28;20545;-55
2022/12/08 05:11:04;;;;;;;7.55;5.22;;;;;;;2.84;100.00;100852.31;5054947;28;20025;-54
2022/12/08 05:13:30;;;;;;;8.85;5.43;;;;;;;2.82;100.00;100852.38;5054940;28;20073;-52
2022/12/08 05:16:04;;;;;;;6.38;4.82;;;;;;;2.82;100.00;100847.13;5054401;28;20447;-51
2022/12/08 05:18:30;;;;;;;6.05;4.97;;;;;;;2.83;100.00;100850.59;5059258;28;20111;-54
2022/12/08 05:20:55;;;;;;;8.15;5.30;;;;;;;2.83;100.00;100843.59;5057233;28;20108;-55
2022/12/08 05:23:20;;;;;;;5.90;5.25;;;;;;;2.85;100.00;100848.75;5054753;28;20029;-53
2022/12/08 05:25:45;;;;;;;8.93;5.30;;;;;;;2.86;100.00;100845.22;5054322;28;20498;-53
2022/12/08 05:28:11;;;;;;;7.75;6.00;;;;;;;2.85;100.00;100840.88;5054160;28;20071;-52
2022/12/08 05:30:36;;;;;;;8.82;6.35;;;;;;;2.85;100.00;100841.75;5054972;28;20025;-55
2022/12/08 05:33:01;;;;;;;6.25;5.45;;;;;;;2.84;100.00;100840.03;5054387;28;20025;-52
2022/12/08 05:35:27;;;;;;;8.13;5.32;;;;;;;2.84;100.00;100844.44;5042817;28;20052;-54
2022/12/08 05:37:52;;;;;;;7.45;5.65;;;;;;;2.81;100.00;100834.06;5052927;28;20053;-52
2022/12/08 05:40:18;;;;;;;8.38;5.63;;;;;;;2.81;100.00;100841.94;5053992;28;20095;-52
2022/12/08 05:42:43;;;;;;;7.07;5.15;;;;;;;2.80;100.00;100843.72;5054107;28;20039;-53
2022/12/08 05:45:09;;;;;;;4.60;3.55;;;;;;;2.79;100.00;100842.00;5054735;28;20467;-53
2022/12/08 05:47:34;;;;;;;4.47;3.08;;;;;;;2.78;100.00;100846.41;5053587;28;20025;-53
2022/12/08 05:49:59;;;;;;;5.32;2.58;;;;;;;2.76;100.00;100842.13;5055061;28;20024;-54
2022/12/08 05:52:24;;;;;;;6.63;2.85;;;;;;;2.75;100.00;100836.06;5053550;28;20067;-52
2022/12/08 05:54:50;;;;;;;3.47;3.00;;;;;;;2.74;100.00;100833.50;5054370;28;20028;-55
2022/12/08 05:57:15;;;;;;;7.20;3.30;;;;;;;2.76;100.00;100829.03;5054257;28;20037;-55
2022/12/08 05:59:40;;;;;;;3.92;2.90;;;;;;;2.76;100.00;100827.28;5054413;28;20055;-53
2022/12/08 06:02:07;;;;;;;5.45;2.95;;;;;;;2.78;100.00;100832.41;5053902;28;20028;-54
2022/12/08 06:04:33;;;;;;;5.55;2.85;;;;;;;2.77;100.00;100830.75;5050400;28;20091;-52
2022/12/08 06:06:58;;;;;;;8.18;3.10;;;;;;;2.76;100.00;100832.53;5052137;28;20417;-51
2022/12/08 06:09:23;;;;;;;5.78;2.90;;;;;;;2.76;100.00;100827.28;5053313;28;20429;-51
2022/12/08 06:11:48;;;;;;;5.95;3.28;;;;;;;2.76;100.00;100821.16;5043087;28;20041;-51
2022/12/08 06:14:14;;;;;;;4.63;3.30;;;;;;;2.76;100.00;100821.16;5053601;28;20155;-54
2022/12/08 06:16:39;;;;;;;4.68;3.22;;;;;;;2.78;100.00;100821.94;5053738;28;20025;-52
2022/12/08 06:19:05;;;;;;;2.88;2.50;;;;;;;2.76;100.00;100815.91;5052286;28;20024;-55
2022/12/08 06:21:30;;;;;;;6.97;2.80;;;;;;;2.78;100.00;100814.06;5053642;28;20117;-51
2022/12/08 06:23:55;;;;;;;5.30;2.95;;;;;;;2.78;100.00;100822.81;5052806;28;20475;-55
2022/12/08 06:26:21;;;;;;;6.63;3.92;;;;;;;2.79;100.00;100818.41;5053498;28;20104;-54
2022/12/08 06:28:48;;;;;;;5.40;3.00;;;;;;;2.81;100.00;100819.19;5054100;28;20482;-55
2022/12/08 06:31:14;;;;;;;6.28;3.03;;;;;;;2.81;100.00;100818.34;5052826;28;20033;-54
2022/12/08 06:33:39;;;;;;;4.82;3.40;;;;;;;2.84;100.00;100823.44;5053493;28;20028;-53
2022/12/08 06:36:05;;;;;;;4.05;3.22;;;;;;;2.85;100.00;100831.25;5039695;28;20024;-54
2022/12/08 06:38:31;;;;;;;5.53;4.03;;;;;;;2.87;100.00;100826.78;5053506;28;20116;-54
2022/12/08 06:40:57;;;;;;;5.53;3.53;;;;;;;2.87;100.00;100821.53;5053448;28;20021;-51
2022/12/08 06:43:23;;;;;;;6.60;3.17;;;;;;;2.88;100.00;100825.00;5053341;28;20227;-52
2022/12/08 06:45:49;;;;;;;6.13;2.88;;;;;;;2.86;100.00;100826.84;5053528;28;20049;-53
2022/12/08 06:48:14;;;;;;;4.35;2.70;;;;;;;2.84;100.00;100821.66;5051985;28;20060;-54
2022/12/08 06:50:40;;;;;;;4.82;3.40;;;;;;;2.84;100.00;100826.06;5053456;28;20025;-55
2022/12/08 06:53:05;;;;;;;5.55;3.47;;;;;;;2.84;100.00;100818.19;5051639;28;20021;-55
2022/12/08 06:55:31;;;;;;;5.20;3.38;;;;;;;2.87;100.00;100818.91;5050996;28;20029;-53
2022/12/08 06:57:56;;;;;;;9.73;3.83;;;;;;;2.87;100.00;100815.44;5053868;28;20107;-54
2022/12/08 07:00:22;;;;;;;4.00;3.30;;;;;;;2.88;100.00;100817.13;5037665;28;20064;-54
2022/12/08 07:02:47;;;;;;;4.47;3.40;;;;;;;2.87;100.00;100816.28;5037997;28;20078;-57
2022/12/08 07:05:13;;;;;;;6.05;3.85;;;;;;;2.88;100.00;100812.75;5051851;28;20112;-55
2022/12/08 07:07:38;;;;;;;8.77;4.85;;;;;;;2.88;100.00;100817.13;5051860;28;20501;-55
2022/12/08 07:10:04;;;;;;;6.97;4.80;;;;;;;2.87;100.00;100811.03;5045191;28;20031;-55
2022/12/08 07:12:29;;;;;;;7.43;6.13;;;;;;;2.87;100.00;100813.66;5049244;28;20199;-56
2022/12/08 07:14:55;;;;;;;7.78;6.28;;;;;;;2.87;100.00;100818.91;5044596;28;20231;-56
2022/12/08 07:17:20;;;;;;;9.75;7.95;;;;;;;2.88;100.00;100819.75;5047567;28;20498;-54
2022/12/08 07:19:45;;;;;;;12.35;9.45;;;;;;;2.87;100.00;100818.91;5047630;28;20025;-55
2022/12/08 07:22:10;;;;;;;14.90;10.77;;;;;;;2.88;100.00;100819.75;5050286;28;20031;-55
2022/12/08 07:24:36;;;;;;;16.67;13.50;;;;;;;2.87;100.00;100818.06;5049512;28;20518;-56
2022/12/08 07:27:01;;;;;;;27.58;18.85;;;;;;;2.87;100.00;100816.28;5046031;28;20029;-52
2022/12/08 07:29:26;;;;;;;23.58;18.40;;;;;;;2.87;100.00;100821.53;5044624;28;20182;-55
2022/12/08 07:31:51;;;;;;;27.50;22.50;;;;;;;2.88;100.00;100823.25;5045757;28;20020;-54
2022/12/08 07:34:17;;;;;;;29.55;23.98;;;;;;;2.88;100.00;100823.25;5050164;28;20037;-56
2022/12/08 07:36:42;;;;;;;30.27;24.13;;;;;;;2.86;100.00;100827.69;5052664;28;20466;-56
2022/12/08 07:39:08;;;;;;;33.65;28.10;;;;;;;2.85;100.00;100825.13;5048114;28;20032;-56
2022/12/08 07:41:33;;;;;;;34.63;25.75;;;;;;;2.85;100.00;100825.13;5040589;28;20048;-56
2022/12/08 07:43:58;;;;;;;32.35;25.50;;;;;;;2.84;100.00;100815.56;5047734;28;20065;-53
2022/12/08 07:46:25;;;;;;;27.67;24.65;;;;;;;2.85;100.00;100815.50;5047642;28;20036;-51
2022/12/08 07:48:54;;;;;;;30.52;23.85;;;;;;;2.84;100.00;100810.34;5047848;28;20518;-54
2022/12/08 07:51:19;;;;;;;31.65;25.45;;;;;;;2.84;100.00;100813.78;5044305;28;20037;-55
2022/12/08 07:53:47;;;;;;;28.60;24.42;;;;;;;2.85;100.00;100819.88;5044465;28;20501;-53
2022/12/08 07:56:12;;;;;;;33.80;27.05;;;;;;;2.83;100.00;100824.34;5040668;28;20041;-53
2022/12/08 07:58:38;;;;;;;32.08;27.13;;;;;;;2.83;100.00;100819.13;5043457;28;20033;-49
2022/12/08 08:01:04;;;;;;;34.60;28.13;;;;;;;2.83;100.00;100835.72;5049188;28;20064;-58
2022/12/08 08:03:30;;;;;;;35.25;27.27;;;;;;;2.82;100.00;100826.13;5041927;28;20060;-57
2022/12/08 08:06:02;;;;;;;28.08;23.10;;;;;;;2.81;100.00;100829.66;5033137;28;20093;-54
2022/12/08 08:08:27;;;;;;;27.40;19.83;;;;;;;2.80;100.00;100827.13;5038395;28;20034;-51
2022/12/08 08:10:53;;;;;;;24.45;18.55;;;;;;;2.80;100.00;100827.13;5043110;28;20505;-54
2022/12/08 08:13:18;;;;;;;25.35;19.33;;;;;;;2.80;100.00;100832.34;5048957;28;20041;-54
2022/12/08 08:15:44;;;;;;;19.23;15.55;;;;;;;2.78;100.00;100830.69;5049736;28;20565;-52
2022/12/08 08:18:09;;;;;;;21.02;15.05;;;;;;;2.77;100.00;100826.34;5049040;28;20116;-56
2022/12/08 08:20:35;;;;;;;19.70;15.05;;;;;;;2.79;100.00;100831.50;5046777;28;20108;-56
2022/12/08 08:23:00;;;;;;;16.25;14.32;;;;;;;2.79;100.00;100834.13;5043675;28;20483;-55
2022/12/08 08:25:25;;;;;;;18.00;13.77;;;;;;;2.80;100.00;100832.34;5062963;28;20021;-57
2022/12/08 08:27:51;;;;;;;17.20;13.93;;;;;;;2.81;100.00;100831.44;5044081;28;20029;-57
2022/12/08 08:30:16;;;;;;;16.95;13.88;;;;;;;2.82;100.00;100835.78;5045443;28;20060;-56
2022/12/08 08:32:42;;;;;;;17.80;12.52;;;;;;;2.82;100.00;100834.00;5042316;28;20048;-56
2022/12/08 08:35:08;;;;;;;17.52;13.07;;;;;;;2.82;100.00;100833.16;5043327;28;20403;-57
2022/12/08 08:37:34;;;;;;;14.60;11.88;;;;;;;2.83;100.00;100832.22;5045503;28;20025;-58
2022/12/08 08:39:59;;;;;;;13.30;9.80;;;;;;;2.82;100.00;100830.53;5048399;28;20033;-55
2022/12/08 08:42:25;;;;;;;11.27;9.15;;;;;;;2.78;100.00;100825.44;5033621;28;20525;-55
2022/12/08 08:44:50;;;;;;;11.48;9.38;;;;;;;2.80;100.00;100822.75;5047570;28;20449;-57
2022/12/08 08:47:15;;;;;;;15.23;11.73;;;;;;;2.82;100.00;100820.06;5050489;28;20489;-56
2022/12/08 08:49:41;;;;;;;20.83;14.60;;;;;;;2.85;100.00;100819.88;5041895;28;20025;-56
2022/12/08 08:52:06;;;;;;;21.70;16.40;;;;;;;2.88;100.00;100819.75;5037800;28;20026;-56
2022/12/08 08:54:32;;;;;;;27.02;19.45;;;;;;;2.86;100.00;100819.81;5045813;28;20095;-56
2022/12/08 08:56:59;;;;;;;28.83;21.63;;;;;;;2.87;100.00;100826.78;5050902;28;20025;-56
2022/12/08 08:59:25;;;;;;;28.17;22.25;;;;;;;2.90;100.00;100826.66;5051352;28;20033;-55
2022/12/08 09:01:51;;;;;;;30.67;21.73;;;;;;;2.89;100.00;100824.09;5049817;28;20049;-57
2022/12/08 09:04:17;;;;;;;27.38;20.58;;;;;;;2.88;100.00;100827.63;5044830;28;20063;-56
2022/12/08 09:06:44;;;;;;;28.10;20.58;;;;;;;2.88;100.00;100825.00;5042691;28;20791;-57
2022/12/08 09:09:10;;;;;;;25.45;19.58;;;;;;;2.88;100.00;100814.50;5043223;28;20033;-57
2022/12/08 09:11:36;;;;;;;26.73;21.23;;;;;;;2.89;100.00;100813.59;5039180;28;20040;-57
2022/12/08 09:14:01;;;;;;;24.58;19.80;;;;;;;2.87;100.00;100820.69;5036657;28;20033;-53
2022/12/08 09:16:27;;;;;;;23.10;17.83;;;;;;;2.85;100.00;100812.88;5040631;28;20112;-56
2022/12/08 09:18:52;;;;;;;23.30;18.85;;;;;;;2.87;100.00;100824.16;5040773;28;20067;-56
2022/12/08 09:21:22;;;;;;;22.95;18.50;;;;;;;2.86;100.00;100819.81;5047186;28;20479;-53
2022/12/08 09:23:49;;;;;;;23.15;18.42;;;;;;;2.87;100.00;100812.81;5054318;28;20394;-56
2022/12/08 09:26:14;;;;;;;20.92;16.83;;;;;;;2.88;100.00;100810.13;5055250;28;20039;-57
2022/12/08 09:28:45;;;;;;;20.45;15.15;;;;;;;2.90;100.00;100813.53;5054337;28;20021;-57
2022/12/08 09:31:11;;;;;;;18.48;13.95;;;;;;;2.92;100.00;100816.09;5054298;28;20463;-57
2022/12/08 09:33:37;;;;;;;17.52;13.57;;;;;;;2.94;100.00;100809.00;5051696;28;20037;-56
2022/12/08 09:36:03;;;;;;;19.02;12.90;;;;;;;2.95;100.00;100805.47;5041470;28;20033;-54
2022/12/08 09:38:28;;;;;;;17.45;12.43;;;;;;;2.96;100.00;100813.25;5054284;28;20025;-56
2022/12/08 09:40:54;;;;;;;19.58;13.43;;;;;;;2.97;100.00;100808.84;5054711;28;20382;-57
2022/12/08 09:43:47;;;;;;;18.42;14.75;;;;;;;3.00;100.00;100819.22;5053853;28;20036;-57
2022/12/08 09:46:16;;;;;;;21.25;16.40;;;;;;;3.00;100.00;100810.47;5042562;28;20029;-55
2022/12/08 09:48:54;;;;;;;29.52;22.73;;;;;;;3.01;100.00;100814.81;5045528;28;20029;-56
2022/12/08 09:51:22;;;;;;;36.00;27.33;;;;;;;3.04;100.00;100814.69;5047499;28;20454;-55
2022/12/08 09:53:52;;;;;;;38.38;29.50;;;;;;;3.05;100.00;100809.38;5049796;28;20442;-56
2022/12/08 09:56:20;;;;;;;;;;;;;;;3.12;100.00;100813.41;5051866;28;20025;-56
2022/12/08 09:58:57;;;;;;;44.35;32.17;;;;;;;3.09;100.00;100808.28;5048442;28;19920;-55
2022/12/08 10:01:27;;;;;;;42.65;33.75;;;;;;;3.09;100.00;100802.19;5052333;28;20033;-57
2022/12/08 10:03:54;;;;;;;45.42;34.33;;;;;;;3.11;100.00;100803.84;5051991;28;20051;-57
2022/12/08 10:06:57;;;;;;;46.33;34.90;;;;;;;3.12;100.00;100802.91;5051611;28;20025;-57
2022/12/08 10:09:44;;;;;;;43.08;34.33;;;;;;;3.10;100.00;100798.66;5049856;28;20021;-54
2022/12/08 10:12:21;;;;;;;42.67;33.10;;;;;;;3.09;100.00;100805.66;5051229;28;20048;-57
2022/12/08 10:15:08;;;;;;;45.42;33.13;;;;;;;3.09;100.00;100796.94;5049108;28;20021;-56
2022/12/08 10:17:43;;;;;;;43.30;31.60;;;;;;;3.07;100.00;100791.75;5050157;28;20477;-56
2022/12/08 10:20:11;;;;;;;38.25;30.95;;;;;;;3.08;100.00;100793.47;5049681;28;20094;-54
2022/12/08 10:22:36;;;;;;;45.40;32.80;;;;;;;3.08;100.00;100789.97;5050281;28;20037;-57
2022/12/08 10:25:15;;;;;;;44.15;32.08;;;;;;;3.09;100.00;100792.53;5050676;28;20478;-57
2022/12/08 10:27:40;;;;;;;46.05;31.90;;;;;;;3.09;100.00;100782.03;5050523;28;20025;-57
2022/12/08 10:30:13;;;;;;;36.78;28.17;;;;;;;3.09;100.00;100789.06;5050719;28;20518;-57
2022/12/08 10:32:44;;;;;;;37.33;27.00;;;;;;;3.07;100.00;100785.69;5049842;28;20029;-55
2022/12/08 10:35:14;;;;;;;34.38;26.05;;;;;;;3.06;100.00;100782.19;5043948;28;20037;-56
2022/12/08 10:37:39;;;;;;;34.13;24.90;;;;;;;3.06;100.00;100782.19;5050076;28;20063;-57
2022/12/08 10:40:12;;;;;;;30.00;21.80;;;;;;;3.08;100.00;100775.13;5050442;28;20407;-57
2022/12/08 10:42:52;;;;;;;27.55;20.17;;;;;;;3.10;100.00;100782.91;5046220;28;20025;-57
2022/12/08 10:45:22;;;;;;;;;;;;;;;3.15;100.00;100779.16;5050148;28;20426;-57
2022/12/08 10:48:08;;;;;;;28.85;20.52;;;;;;;3.12;100.00;100788.94;5049694;28;19931;-56
2022/12/08 10:50:45;;;;;;;27.08;19.60;;;;;;;3.09;100.00;100784.66;5050322;28;20029;-56
2022/12/08 10:53:14;;;;;;;22.80;16.95;;;;;;;3.06;100.00;100781.34;5048796;28;20123;-57
2022/12/08 10:55:40;;;;;;;26.08;19.58;;;;;;;3.04;100.00;100789.28;5050321;28;20025;-57
2022/12/08 10:58:22;;;;;;;25.87;18.77;;;;;;;3.04;100.00;100781.41;5050429;28;20096;-56
2022/12/08 11:00:52;;;;;;;26.80;18.13;;;;;;;3.03;100.00;100782.34;5049269;28;20283;-57
2022/12/08 11:03:27;;;;;;;23.15;17.38;;;;;;;3.02;100.00;100783.25;5048624;28;20028;-56
2022/12/08 11:05:56;;;;;;;24.65;17.30;;;;;;;2.99;100.00;100778.16;5040729;28;20471;-56
2022/12/08 11:08:21;;;;;;;26.02;18.65;;;;;;;3.00;100.00;100772.00;5040165;28;20060;-57
2022/12/08 11:10:47;;;;;;;25.60;18.67;;;;;;;3.00;100.00;100766.75;5051388;28;20516;-57
2022/12/08 11:13:25;;;;;;;19.08;15.95;;;;;;;2.97;100.00;100774.75;5050808;28;20053;-55
2022/12/08 11:15:55;;;;;;;24.77;15.73;;;;;;;2.93;100.00;100773.16;5050178;28;20033;-55
2022/12/08 11:18:29;;;;;;;21.08;16.40;;;;;;;2.93;100.00;100770.56;5051182;28;20306;-57
2022/12/08 11:21:06;;;;;;;24.58;17.67;;;;;;;2.92;100.00;100763.63;5057155;28;20029;-57
2022/12/08 11:23:34;;;;;;;24.10;18.75;;;;;;;2.92;100.00;100761.84;5049828;28;20025;-57
2022/12/08 11:26:07;;;;;;;26.85;19.63;;;;;;;2.92;100.00;100759.22;5051039;28;20021;-56
2022/12/08 11:28:33;;;;;;;25.13;19.30;;;;;;;2.97;100.00;100759.00;5050934;28;20021;-56